sensor_id;sensor_type;location;lat;lon;timestamp;temperature;humidity
15452;DHT22;7827;53.594;9.938;2022-07-29T00:01:50;14.90;99.90
15452;DHT22;7827;53.594;9.938;2022-07-29T00:04:20;14.80;99.90
15452;DHT22;7827;53.594;9.938;2022-07-29T00:06:48;14.80;99.90
15452;DHT22;7827;53.594;9.938;2022-07-29T00:09:16;14.80;99.90
15452;DHT22;7827;53.594;9.938;2022-07-29T00:11:45;14.90;99.90
15452;DHT22;7827;53.594;9.938;2022-07-29T00:14:13;14.80;99.90
15452;DHT22;7827;53.594;9.938;2022-07-29T00:16:43;14.80;99.90
15452;DHT22;7827;53.594;9.938;2022-07-29T00:19:11;14.80;99.90
15452;DHT22;7827;53.594;9.938;2022-07-29T00:21:39;14.80;99.90
15452;DHT22;7827;53.594;9.938;2022-07-29T00:24:08;14.70;99.90
15452;DHT22;7827;53.594;9.938;2022-07-29T00:26:36;14.70;99.90
15452;DHT22;7827;53.594;9.938;2022-07-29T00:29:05;14.70;99.90
15452;DHT22;7827;53.594;9.938;2022-07-29T00:31:54;14.70;99.90
15452;DHT22;7827;53.594;9.938;2022-07-29T00:34:22;14.60;99.90
15452;DHT22;7827;53.594;9.938;2022-07-29T00:37:08;14.70;99.90
15452;DHT22;7827;53.594;9.938;2022-07-29T00:39:37;14.60;99.90
15452;DHT22;7827;53.594;9.938;2022-07-29T00:42:05;14.50;99.90
15452;DHT22;7827;53.594;9.938;2022-07-29T00:44:37;14.50;99.90
15452;DHT22;7827;53.594;9.938;2022-07-29T00:47:07;14.50;99.90
15452;DHT22;7827;53.594;9.938;2022-07-29T00:49:36;14.50;99.90
15452;DHT22;7827;53.594;9.938;2022-07-29T00:52:08;14.50;99.90
15452;DHT22;7827;53.594;9.938;2022-07-29T00:54:38;14.50;99.90
15452;DHT22;7827;53.594;9.938;2022-07-29T00:57:10;14.50;99.90
15452;DHT22;7827;53.594;9.938;2022-07-29T00:59:39;14.40;99.90
15452;DHT22;7827;53.594;9.938;2022-07-29T01:02:09;14.40;99.90
15452;DHT22;7827;53.594;9.938;2022-07-29T01:04:37;14.40;99.90
15452;DHT22;7827;53.594;9.938;2022-07-29T01:07:07;14.40;99.90
15452;DHT22;7827;53.594;9.938;2022-07-29T01:09:36;14.30;99.90
15452;DHT22;7827;53.594;9.938;2022-07-29T01:12:15;14.30;99.90
15452;DHT22;7827;53.594;9.938;2022-07-29T01:14:47;14.30;99.90
15452;DHT22;7827;53.594;9.938;2022-07-29T01:17:21;14.30;99.90
15452;DHT22;7827;53.594;9.938;2022-07-29T01:19:58;14.20;99.90
15452;DHT22;7827;53.594;9.938;2022-07-29T01:22:42;14.20;99.90
15452;DHT22;7827;53.594;9.938;2022-07-29T01:25:40;14.20;99.90
15452;DHT22;7827;53.594;9.938;2022-07-29T01:28:52;14.20;99.90
15452;DHT22;7827;53.594;9.938;2022-07-29T01:31:39;14.20;99.90
15452;DHT22;7827;53.594;9.938;2022-07-29T01:34:30;14.10;99.90
15452;DHT22;7827;53.594;9.938;2022-07-29T01:37:08;14.10;99.90
15452;DHT22;7827;53.594;9.938;2022-07-29T01:39:44;14.20;99.90
15452;DHT22;7827;53.594;9.938;2022-07-29T01:42:22;14.20;99.90
15452;DHT22;7827;53.594;9.938;2022-07-29T01:45:00;14.20;99.90
15452;DHT22;7827;53.594;9.938;2022-07-29T01:47:38;14.10;99.90
15452;DHT22;7827;53.594;9.938;2022-07-29T01:50:12;14.10;99.90
15452;DHT22;7827;53.594;9.938;2022-07-29T01:52:52;14.10;99.90
15452;DHT22;7827;53.594;9.938;2022-07-29T01:55:26;14.10;99.90
15452;DHT22;7827;53.594;9.938;2022-07-29T01:57:58;14.10;99.90
15452;DHT22;7827;53.594;9.938;2022-07-29T02:00:31;14.20;99.90
15452;DHT22;7827;53.594;9.938;2022-07-29T02:03:04;14.30;99.90
15452;DHT22;7827;53.594;9.938;2022-07-29T02:05:38;14.10;99.90
15452;DHT22;7827;53.594;9.938;2022-07-29T02:08:08;14.20;99.90
15452;DHT22;7827;53.594;9.938;2022-07-29T02:10:40;14.20;99.90
15452;DHT22;7827;53.594;9.938;2022-07-29T02:13:11;14.10;99.90
15452;DHT22;7827;53.594;9.938;2022-07-29T02:15:43;14.10;99.90
15452;DHT22;7827;53.594;9.938;2022-07-29T02:18:15;14.10;99.90
15452;DHT22;7827;53.594;9.938;2022-07-29T02:20:47;14.20;99.90
15452;DHT22;7827;53.594;9.938;2022-07-29T02:23:18;14.10;99.90
15452;DHT22;7827;53.594;9.938;2022-07-29T02:25:49;14.10;99.90
15452;DHT22;7827;53.594;9.938;2022-07-29T02:28:21;14.20;99.90
15452;DHT22;7827;53.594;9.938;2022-07-29T02:30:53;14.10;99.90
15452;DHT22;7827;53.594;9.938;2022-07-29T02:33:25;14.10;99.90
15452;DHT22;7827;53.594;9.938;2022-07-29T02:35:55;14.10;99.90
15452;DHT22;7827;53.594;9.938;2022-07-29T02:38:27;14.20;99.90
15452;DHT22;7827;53.594;9.938;2022-07-29T02:41:11;14.20;99.90
15452;DHT22;7827;53.594;9.938;2022-07-29T02:43:44;14.20;99.90
15452;DHT22;7827;53.594;9.938;2022-07-29T02:46:20;14.10;99.90
15452;DHT22;7827;53.594;9.938;2022-07-29T02:48:59;14.20;99.90
15452;DHT22;7827;53.594;9.938;2022-07-29T02:51:40;14.10;99.90
15452;DHT22;7827;53.594;9.938;2022-07-29T02:54:21;14.10;99.90
15452;DHT22;7827;53.594;9.938;2022-07-29T02:56:54;14.20;99.90
15452;DHT22;7827;53.594;9.938;2022-07-29T02:59:27;14.10;99.90
15452;DHT22;7827;53.594;9.938;2022-07-29T03:02:02;14.10;99.90
15452;DHT22;7827;53.594;9.938;2022-07-29T03:04:34;14.10;99.90
15452;DHT22;7827;53.594;9.938;2022-07-29T03:07:03;14.10;99.90
15452;DHT22;7827;53.594;9.938;2022-07-29T03:09:33;14.10;99.90
15452;DHT22;7827;53.594;9.938;2022-07-29T03:12:04;14.10;99.90
15452;DHT22;7827;53.594;9.938;2022-07-29T03:14:33;14.10;99.90
15452;DHT22;7827;53.594;9.938;2022-07-29T03:17:04;14.10;99.90
15452;DHT22;7827;53.594;9.938;2022-07-29T03:19:33;14.10;99.90
15452;DHT22;7827;53.594;9.938;2022-07-29T03:22:02;14.20;99.90
15452;DHT22;7827;53.594;9.938;2022-07-29T03:24:32;14.20;99.90
15452;DHT22;7827;53.594;9.938;2022-07-29T03:27:03;14.30;99.90
15452;DHT22;7827;53.594;9.938;2022-07-29T03:29:32;14.20;99.90
15452;DHT22;7827;53.594;9.938;2022-07-29T03:32:04;14.20;99.90
15452;DHT22;7827;53.594;9.938;2022-07-29T03:34:35;14.20;99.90
15452;DHT22;7827;53.594;9.938;2022-07-29T03:37:05;14.30;99.90
15452;DHT22;7827;53.594;9.938;2022-07-29T03:39:38;14.30;99.90
15452;DHT22;7827;53.594;9.938;2022-07-29T03:42:12;14.40;99.90
15452;DHT22;7827;53.594;9.938;2022-07-29T03:44:44;14.50;99.90
15452;DHT22;7827;53.594;9.938;2022-07-29T03:47:18;14.50;99.90
15452;DHT22;7827;53.594;9.938;2022-07-29T03:50:14;14.40;99.90
15452;DHT22;7827;53.594;9.938;2022-07-29T03:52:43;14.50;99.90
15452;DHT22;7827;53.594;9.938;2022-07-29T03:55:12;14.40;99.90
15452;DHT22;7827;53.594;9.938;2022-07-29T03:57:42;14.50;99.90
15452;DHT22;7827;53.594;9.938;2022-07-29T04:00:12;14.50;99.90
15452;DHT22;7827;53.594;9.938;2022-07-29T04:02:44;14.60;99.90
15452;DHT22;7827;53.594;9.938;2022-07-29T04:05:16;14.70;99.90
15452;DHT22;7827;53.594;9.938;2022-07-29T04:07:45;14.70;99.90
15452;DHT22;7827;53.594;9.938;2022-07-29T04:10:17;14.60;99.90
15452;DHT22;7827;53.594;9.938;2022-07-29T04:12:57;14.60;99.90
15452;DHT22;7827;53.594;9.938;2022-07-29T04:15:26;14.70;99.90
15452;DHT22;7827;53.594;9.938;2022-07-29T04:17:58;14.70;99.90
15452;DHT22;7827;53.594;9.938;2022-07-29T04:20:26;14.70;99.90
15452;DHT22;7827;53.594;9.938;2022-07-29T04:22:55;14.70;99.90
15452;DHT22;7827;53.594;9.938;2022-07-29T04:25:23;14.70;99.90
15452;DHT22;7827;53.594;9.938;2022-07-29T04:27:51;14.70;99.90
15452;DHT22;7827;53.594;9.938;2022-07-29T04:30:30;14.80;99.90
15452;DHT22;7827;53.594;9.938;2022-07-29T04:33:00;14.80;99.90
15452;DHT22;7827;53.594;9.938;2022-07-29T04:35:30;14.90;99.90
15452;DHT22;7827;53.594;9.938;2022-07-29T04:38:05;14.90;99.90
15452;DHT22;7827;53.594;9.938;2022-07-29T04:40:41;15.00;99.90
15452;DHT22;7827;53.594;9.938;2022-07-29T04:43:10;15.10;99.90
15452;DHT22;7827;53.594;9.938;2022-07-29T04:45:41;15.10;99.90
15452;DHT22;7827;53.594;9.938;2022-07-29T04:48:11;15.00;99.90
15452;DHT22;7827;53.594;9.938;2022-07-29T04:50:40;15.00;99.90
15452;DHT22;7827;53.594;9.938;2022-07-29T04:53:08;15.00;99.90
15452;DHT22;7827;53.594;9.938;2022-07-29T04:55:37;15.00;99.90
15452;DHT22;7827;53.594;9.938;2022-07-29T04:58:05;15.10;99.90
15452;DHT22;7827;53.594;9.938;2022-07-29T05:00:34;15.10;99.90
15452;DHT22;7827;53.594;9.938;2022-07-29T05:03:02;15.20;99.90
15452;DHT22;7827;53.594;9.938;2022-07-29T05:05:32;15.30;99.90
15452;DHT22;7827;53.594;9.938;2022-07-29T05:08:01;15.40;99.90
15452;DHT22;7827;53.594;9.938;2022-07-29T05:10:29;15.40;99.90
15452;DHT22;7827;53.594;9.938;2022-07-29T05:12:57;15.40;99.90
15452;DHT22;7827;53.594;9.938;2022-07-29T05:15:26;15.40;99.90
15452;DHT22;7827;53.594;9.938;2022-07-29T05:17:54;15.40;99.90
15452;DHT22;7827;53.594;9.938;2022-07-29T05:20:23;15.50;99.90
15452;DHT22;7827;53.594;9.938;2022-07-29T05:22:56;15.40;99.90
15452;DHT22;7827;53.594;9.938;2022-07-29T05:25:26;15.40;99.90
15452;DHT22;7827;53.594;9.938;2022-07-29T05:28:10;15.50;99.90
15452;DHT22;7827;53.594;9.938;2022-07-29T05:30:39;15.50;99.90
15452;DHT22;7827;53.594;9.938;2022-07-29T05:33:07;15.50;99.90
15452;DHT22;7827;53.594;9.938;2022-07-29T05:35:55;15.50;99.90
15452;DHT22;7827;53.594;9.938;2022-07-29T05:38:28;15.60;99.90
15452;DHT22;7827;53.594;9.938;2022-07-29T05:40:57;15.70;99.90
15452;DHT22;7827;53.594;9.938;2022-07-29T05:43:30;15.80;99.90
15452;DHT22;7827;53.594;9.938;2022-07-29T05:45:58;16.10;99.90
15452;DHT22;7827;53.594;9.938;2022-07-29T05:48:27;16.10;99.90
15452;DHT22;7827;53.594;9.938;2022-07-29T05:50:56;16.10;99.90
15452;DHT22;7827;53.594;9.938;2022-07-29T05:53:25;16.10;99.90
15452;DHT22;7827;53.594;9.938;2022-07-29T05:55:54;16.20;99.90
15452;DHT22;7827;53.594;9.938;2022-07-29T05:58:23;16.30;99.90
15452;DHT22;7827;53.594;9.938;2022-07-29T06:00:52;16.40;99.90
15452;DHT22;7827;53.594;9.938;2022-07-29T06:03:21;16.50;99.90
15452;DHT22;7827;53.594;9.938;2022-07-29T06:05:49;16.60;99.90
15452;DHT22;7827;53.594;9.938;2022-07-29T06:08:17;16.60;99.90
15452;DHT22;7827;53.594;9.938;2022-07-29T06:10:46;16.70;99.90
15452;DHT22;7827;53.594;9.938;2022-07-29T06:13:16;16.80;99.90
15452;DHT22;7827;53.594;9.938;2022-07-29T06:15:44;16.90;99.90
15452;DHT22;7827;53.594;9.938;2022-07-29T06:18:13;17.00;99.90
15452;DHT22;7827;53.594;9.938;2022-07-29T06:20:41;17.10;99.90
15452;DHT22;7827;53.594;9.938;2022-07-29T06:23:10;17.30;99.90
15452;DHT22;7827;53.594;9.938;2022-07-29T06:25:39;17.50;99.90
15452;DHT22;7827;53.594;9.938;2022-07-29T06:28:08;17.80;99.90
15452;DHT22;7827;53.594;9.938;2022-07-29T06:30:38;17.80;99.90
15452;DHT22;7827;53.594;9.938;2022-07-29T06:33:07;17.70;99.90
15452;DHT22;7827;53.594;9.938;2022-07-29T06:35:35;17.60;99.90
15452;DHT22;7827;53.594;9.938;2022-07-29T06:38:09;17.60;99.90
15452;DHT22;7827;53.594;9.938;2022-07-29T06:40:59;17.60;99.90
15452;DHT22;7827;53.594;9.938;2022-07-29T06:43:30;17.60;99.90
15452;DHT22;7827;53.594;9.938;2022-07-29T06:46:03;17.70;99.90
15452;DHT22;7827;53.594;9.938;2022-07-29T06:48:33;17.70;99.90
15452;DHT22;7827;53.594;9.938;2022-07-29T06:51:04;17.70;99.90
15452;DHT22;7827;53.594;9.938;2022-07-29T06:53:33;17.70;99.90
15452;DHT22;7827;53.594;9.938;2022-07-29T06:56:03;17.70;99.90
15452;DHT22;7827;53.594;9.938;2022-07-29T06:58:37;17.80;99.90
15452;DHT22;7827;53.594;9.938;2022-07-29T07:01:07;18.00;99.90
15452;DHT22;7827;53.594;9.938;2022-07-29T07:03:39;18.10;99.90
15452;DHT22;7827;53.594;9.938;2022-07-29T07:06:08;18.20;99.90
15452;DHT22;7827;53.594;9.938;2022-07-29T07:08:41;18.40;99.90
15452;DHT22;7827;53.594;9.938;2022-07-29T07:11:09;18.60;99.90
15452;DHT22;7827;53.594;9.938;2022-07-29T07:13:38;18.60;99.90
15452;DHT22;7827;53.594;9.938;2022-07-29T07:16:07;18.70;99.90
15452;DHT22;7827;53.594;9.938;2022-07-29T07:18:36;18.80;99.90
15452;DHT22;7827;53.594;9.938;2022-07-29T07:21:04;18.90;99.90
15452;DHT22;7827;53.594;9.938;2022-07-29T07:23:32;18.90;99.90
15452;DHT22;7827;53.594;9.938;2022-07-29T07:26:01;18.90;99.90
15452;DHT22;7827;53.594;9.938;2022-07-29T07:28:29;19.00;99.90
15452;DHT22;7827;53.594;9.938;2022-07-29T07:30:57;19.10;99.90
15452;DHT22;7827;53.594;9.938;2022-07-29T07:33:27;19.30;99.90
15452;DHT22;7827;53.594;9.938;2022-07-29T07:35:55;19.40;99.90
15452;DHT22;7827;53.594;9.938;2022-07-29T07:38:24;19.50;99.90
15452;DHT22;7827;53.594;9.938;2022-07-29T07:40:52;19.40;99.90
15452;DHT22;7827;53.594;9.938;2022-07-29T07:43:20;19.40;99.90
15452;DHT22;7827;53.594;9.938;2022-07-29T07:45:49;19.40;99.90
15452;DHT22;7827;53.594;9.938;2022-07-29T07:48:17;19.40;99.90
15452;DHT22;7827;53.594;9.938;2022-07-29T07:50:47;19.40;99.90
15452;DHT22;7827;53.594;9.938;2022-07-29T07:53:17;19.20;99.90
15452;DHT22;7827;53.594;9.938;2022-07-29T07:55:46;19.30;99.90
15452;DHT22;7827;53.594;9.938;2022-07-29T07:58:34;19.20;99.90
15452;DHT22;7827;53.594;9.938;2022-07-29T08:01:02;19.20;99.90
15452;DHT22;7827;53.594;9.938;2022-07-29T08:03:31;19.30;99.90
15452;DHT22;7827;53.594;9.938;2022-07-29T08:06:02;19.40;99.90
15452;DHT22;7827;53.594;9.938;2022-07-29T08:08:31;19.40;99.90
15452;DHT22;7827;53.594;9.938;2022-07-29T08:10:59;19.60;99.90
15452;DHT22;7827;53.594;9.938;2022-07-29T08:13:35;19.80;99.90
15452;DHT22;7827;53.594;9.938;2022-07-29T08:16:05;20.10;99.90
15452;DHT22;7827;53.594;9.938;2022-07-29T08:18:43;20.10;99.90
15452;DHT22;7827;53.594;9.938;2022-07-29T08:21:15;20.20;99.90
15452;DHT22;7827;53.594;9.938;2022-07-29T08:23:44;20.30;99.90
15452;DHT22;7827;53.594;9.938;2022-07-29T08:26:26;20.30;99.90
15452;DHT22;7827;53.594;9.938;2022-07-29T08:28:55;20.30;99.90
15452;DHT22;7827;53.594;9.938;2022-07-29T08:31:23;20.50;99.90
15452;DHT22;7827;53.594;9.938;2022-07-29T08:33:52;20.50;99.90
15452;DHT22;7827;53.594;9.938;2022-07-29T08:36:21;20.70;99.90
15452;DHT22;7827;53.594;9.938;2022-07-29T08:38:49;20.70;99.90
15452;DHT22;7827;53.594;9.938;2022-07-29T08:41:18;20.80;99.90
15452;DHT22;7827;53.594;9.938;2022-07-29T08:43:47;20.80;99.90
15452;DHT22;7827;53.594;9.938;2022-07-29T08:46:16;21.00;99.90
15452;DHT22;7827;53.594;9.938;2022-07-29T08:48:45;21.00;99.90
15452;DHT22;7827;53.594;9.938;2022-07-29T08:51:16;21.20;99.90
15452;DHT22;7827;53.594;9.938;2022-07-29T08:53:50;21.20;99.90
15452;DHT22;7827;53.594;9.938;2022-07-29T08:56:19;21.20;99.90
15452;DHT22;7827;53.594;9.938;2022-07-29T08:58:49;21.30;99.90
15452;DHT22;7827;53.594;9.938;2022-07-29T09:01:24;21.40;99.90
15452;DHT22;7827;53.594;9.938;2022-07-29T09:04:04;21.50;99.90
15452;DHT22;7827;53.594;9.938;2022-07-29T09:06:43;21.60;99.90
15452;DHT22;7827;53.594;9.938;2022-07-29T09:09:15;21.70;99.90
15452;DHT22;7827;53.594;9.938;2022-07-29T09:11:44;21.90;99.90
15452;DHT22;7827;53.594;9.938;2022-07-29T09:14:13;22.10;99.90
15452;DHT22;7827;53.594;9.938;2022-07-29T09:16:47;22.30;99.90
15452;DHT22;7827;53.594;9.938;2022-07-29T09:19:21;22.40;99.90
15452;DHT22;7827;53.594;9.938;2022-07-29T09:21:54;22.50;99.90
15452;DHT22;7827;53.594;9.938;2022-07-29T09:24:35;22.50;99.90
15452;DHT22;7827;53.594;9.938;2022-07-29T09:27:12;22.60;99.90
15452;DHT22;7827;53.594;9.938;2022-07-29T09:29:55;22.60;99.90
15452;DHT22;7827;53.594;9.938;2022-07-29T09:32:25;22.60;99.90
15452;DHT22;7827;53.594;9.938;2022-07-29T09:35:14;22.60;99.90
15452;DHT22;7827;53.594;9.938;2022-07-29T09:37:46;22.50;99.90
15452;DHT22;7827;53.594;9.938;2022-07-29T09:40:18;22.50;99.90
15452;DHT22;7827;53.594;9.938;2022-07-29T09:42:48;22.50;99.90
15452;DHT22;7827;53.594;9.938;2022-07-29T09:45:27;22.50;99.90
15452;DHT22;7827;53.594;9.938;2022-07-29T09:47:58;22.30;99.90
15452;DHT22;7827;53.594;9.938;2022-07-29T09:50:37;22.40;99.90
15452;DHT22;7827;53.594;9.938;2022-07-29T09:53:07;22.40;99.90
15452;DHT22;7827;53.594;9.938;2022-07-29T09:55:48;22.50;99.90
15452;DHT22;7827;53.594;9.938;2022-07-29T09:58:19;22.50;99.90
15452;DHT22;7827;53.594;9.938;2022-07-29T10:00:51;22.50;99.90
15452;DHT22;7827;53.594;9.938;2022-07-29T10:03:22;22.60;99.90
15452;DHT22;7827;53.594;9.938;2022-07-29T10:06:08;22.70;99.90
15452;DHT22;7827;53.594;9.938;2022-07-29T10:08:37;22.60;99.90
15452;DHT22;7827;53.594;9.938;2022-07-29T10:11:12;22.60;99.90
15452;DHT22;7827;53.594;9.938;2022-07-29T10:13:42;22.80;99.90
15452;DHT22;7827;53.594;9.938;2022-07-29T10:16:13;22.80;99.90
15452;DHT22;7827;53.594;9.938;2022-07-29T10:18:43;22.80;99.90
15452;DHT22;7827;53.594;9.938;2022-07-29T10:21:13;22.70;99.90
15452;DHT22;7827;53.594;9.938;2022-07-29T10:24:02;22.70;99.90
15452;DHT22;7827;53.594;9.938;2022-07-29T10:26:42;22.70;99.90
15452;DHT22;7827;53.594;9.938;2022-07-29T10:29:11;22.60;99.90
15452;DHT22;7827;53.594;9.938;2022-07-29T10:31:47;22.80;99.90
15452;DHT22;7827;53.594;9.938;2022-07-29T10:34:29;22.80;99.90
15452;DHT22;7827;53.594;9.938;2022-07-29T10:37:20;22.80;99.90
15452;DHT22;7827;53.594;9.938;2022-07-29T10:40:11;22.80;99.90
15452;DHT22;7827;53.594;9.938;2022-07-29T10:43:16;22.80;99.90
15452;DHT22;7827;53.594;9.938;2022-07-29T10:45:49;22.80;99.90
15452;DHT22;7827;53.594;9.938;2022-07-29T10:48:24;22.70;99.90
15452;DHT22;7827;53.594;9.938;2022-07-29T10:50:57;22.80;99.90
15452;DHT22;7827;53.594;9.938;2022-07-29T10:53:49;22.90;99.90
15452;DHT22;7827;53.594;9.938;2022-07-29T10:56:24;22.90;99.90
15452;DHT22;7827;53.594;9.938;2022-07-29T10:59:23;23.00;99.90
15452;DHT22;7827;53.594;9.938;2022-07-29T11:02:02;23.10;99.90
15452;DHT22;7827;53.594;9.938;2022-07-29T11:05:09;23.00;99.90
15452;DHT22;7827;53.594;9.938;2022-07-29T11:07:40;23.10;99.90
15452;DHT22;7827;53.594;9.938;2022-07-29T11:11:30;23.20;99.90
15452;DHT22;7827;53.594;9.938;2022-07-29T11:14:00;23.30;99.90
15452;DHT22;7827;53.594;9.938;2022-07-29T11:16:59;23.30;99.90
15452;DHT22;7827;53.594;9.938;2022-07-29T11:19:33;23.40;99.90
15452;DHT22;7827;53.594;9.938;2022-07-29T11:22:08;23.60;99.90
15452;DHT22;7827;53.594;9.938;2022-07-29T11:24:42;24.00;99.90
15452;DHT22;7827;53.594;9.938;2022-07-29T11:27:17;24.20;99.90
15452;DHT22;7827;53.594;9.938;2022-07-29T11:29:53;24.10;99.90
15452;DHT22;7827;53.594;9.938;2022-07-29T11:32:37;24.20;99.90
15452;DHT22;7827;53.594;9.938;2022-07-29T11:35:17;24.30;99.90
15452;DHT22;7827;53.594;9.938;2022-07-29T11:38:23;24.20;99.90
15452;DHT22;7827;53.594;9.938;2022-07-29T11:41:24;24.40;99.90
15452;DHT22;7827;53.594;9.938;2022-07-29T11:43:55;24.60;99.90
15452;DHT22;7827;53.594;9.938;2022-07-29T11:46:44;24.60;99.90
15452;DHT22;7827;53.594;9.938;2022-07-29T11:49:21;24.60;99.90
15452;DHT22;7827;53.594;9.938;2022-07-29T11:51:59;24.50;99.90
15452;DHT22;7827;53.594;9.938;2022-07-29T11:54:50;24.50;99.90
15452;DHT22;7827;53.594;9.938;2022-07-29T11:57:26;24.60;99.90
15452;DHT22;7827;53.594;9.938;2022-07-29T12:00:04;24.60;99.90
15452;DHT22;7827;53.594;9.938;2022-07-29T12:02:41;24.60;99.90
15452;DHT22;7827;53.594;9.938;2022-07-29T12:05:19;24.40;99.90
15452;DHT22;7827;53.594;9.938;2022-07-29T12:08:11;24.30;99.90
15452;DHT22;7827;53.594;9.938;2022-07-29T12:10:41;24.60;99.90
15452;DHT22;7827;53.594;9.938;2022-07-29T12:13:10;24.80;99.90
15452;DHT22;7827;53.594;9.938;2022-07-29T12:15:40;25.00;99.90
15452;DHT22;7827;53.594;9.938;2022-07-29T12:18:18;25.10;99.90
15452;DHT22;7827;53.594;9.938;2022-07-29T12:20:58;25.10;99.90
15452;DHT22;7827;53.594;9.938;2022-07-29T12:23:31;25.20;99.90
15452;DHT22;7827;53.594;9.938;2022-07-29T12:26:04;25.20;99.90
15452;DHT22;7827;53.594;9.938;2022-07-29T12:28:48;25.40;99.90
15452;DHT22;7827;53.594;9.938;2022-07-29T12:31:16;25.50;99.90
15452;DHT22;7827;53.594;9.938;2022-07-29T12:34:05;25.30;99.90
15452;DHT22;7827;53.594;9.938;2022-07-29T12:36:34;25.30;99.90
15452;DHT22;7827;53.594;9.938;2022-07-29T12:39:03;25.30;99.90
15452;DHT22;7827;53.594;9.938;2022-07-29T12:41:31;25.40;99.90
15452;DHT22;7827;53.594;9.938;2022-07-29T12:44:00;25.40;99.90
15452;DHT22;7827;53.594;9.938;2022-07-29T12:46:28;25.40;99.90
15452;DHT22;7827;53.594;9.938;2022-07-29T12:48:57;25.50;99.90
15452;DHT22;7827;53.594;9.938;2022-07-29T12:51:29;25.70;99.90
15452;DHT22;7827;53.594;9.938;2022-07-29T12:54:04;25.80;99.90
15452;DHT22;7827;53.594;9.938;2022-07-29T12:56:34;25.80;99.90
15452;DHT22;7827;53.594;9.938;2022-07-29T12:59:13;25.70;99.90
15452;DHT22;7827;53.594;9.938;2022-07-29T13:01:42;25.80;99.90
15452;DHT22;7827;53.594;9.938;2022-07-29T13:04:11;25.90;99.90
15452;DHT22;7827;53.594;9.938;2022-07-29T13:06:58;26.00;99.90
15452;DHT22;7827;53.594;9.938;2022-07-29T13:09:39;26.10;99.90
15452;DHT22;7827;53.594;9.938;2022-07-29T13:12:11;26.20;99.90
15452;DHT22;7827;53.594;9.938;2022-07-29T13:14:42;26.30;99.90
15452;DHT22;7827;53.594;9.938;2022-07-29T13:17:13;26.30;99.90
15452;DHT22;7827;53.594;9.938;2022-07-29T13:19:43;26.30;99.90
15452;DHT22;7827;53.594;9.938;2022-07-29T13:22:14;26.20;99.90
15452;DHT22;7827;53.594;9.938;2022-07-29T13:24:50;26.30;99.90
15452;DHT22;7827;53.594;9.938;2022-07-29T13:27:22;26.30;99.90
15452;DHT22;7827;53.594;9.938;2022-07-29T13:29:51;26.20;99.90
15452;DHT22;7827;53.594;9.938;2022-07-29T13:32:23;26.10;99.90
15452;DHT22;7827;53.594;9.938;2022-07-29T13:34:55;26.10;99.90
15452;DHT22;7827;53.594;9.938;2022-07-29T13:37:24;26.20;99.90
15452;DHT22;7827;53.594;9.938;2022-07-29T13:39:57;26.10;99.90
15452;DHT22;7827;53.594;9.938;2022-07-29T13:42:26;26.00;99.90
15452;DHT22;7827;53.594;9.938;2022-07-29T13:44:54;25.90;99.90
15452;DHT22;7827;53.594;9.938;2022-07-29T13:47:22;25.80;99.90
15452;DHT22;7827;53.594;9.938;2022-07-29T13:50:00;25.80;99.90
15452;DHT22;7827;53.594;9.938;2022-07-29T13:52:28;25.90;99.90
15452;DHT22;7827;53.594;9.938;2022-07-29T13:54:58;25.90;99.90
15452;DHT22;7827;53.594;9.938;2022-07-29T13:57:27;25.90;99.90
15452;DHT22;7827;53.594;9.938;2022-07-29T13:59:56;26.00;99.90
15452;DHT22;7827;53.594;9.938;2022-07-29T14:02:24;25.80;99.90
15452;DHT22;7827;53.594;9.938;2022-07-29T14:04:53;25.80;99.90
15452;DHT22;7827;53.594;9.938;2022-07-29T14:07:22;25.50;99.90
15452;DHT22;7827;53.594;9.938;2022-07-29T14:09:50;25.20;99.90
15452;DHT22;7827;53.594;9.938;2022-07-29T14:12:20;25.00;99.90
15452;DHT22;7827;53.594;9.938;2022-07-29T14:14:49;24.90;99.90
15452;DHT22;7827;53.594;9.938;2022-07-29T14:17:17;24.80;99.90
15452;DHT22;7827;53.594;9.938;2022-07-29T14:19:45;24.80;99.90
15452;DHT22;7827;53.594;9.938;2022-07-29T14:22:14;24.70;99.90
15452;DHT22;7827;53.594;9.938;2022-07-29T14:24:42;24.50;99.90
15452;DHT22;7827;53.594;9.938;2022-07-29T14:27:11;24.40;99.90
15452;DHT22;7827;53.594;9.938;2022-07-29T14:29:41;24.40;99.90
15452;DHT22;7827;53.594;9.938;2022-07-29T14:32:10;24.20;99.90
15452;DHT22;7827;53.594;9.938;2022-07-29T14:34:38;24.10;99.90
15452;DHT22;7827;53.594;9.938;2022-07-29T14:37:06;24.10;99.90
15452;DHT22;7827;53.594;9.938;2022-07-29T14:39:42;24.00;99.90
15452;DHT22;7827;53.594;9.938;2022-07-29T14:42:10;24.00;99.90
15452;DHT22;7827;53.594;9.938;2022-07-29T14:44:41;24.00;99.90
15452;DHT22;7827;53.594;9.938;2022-07-29T14:47:12;24.00;99.90
15452;DHT22;7827;53.594;9.938;2022-07-29T14:49:41;24.00;99.90
15452;DHT22;7827;53.594;9.938;2022-07-29T14:52:09;24.00;99.90
15452;DHT22;7827;53.594;9.938;2022-07-29T14:54:37;24.10;99.90
15452;DHT22;7827;53.594;9.938;2022-07-29T14:57:06;24.20;99.90
15452;DHT22;7827;53.594;9.938;2022-07-29T14:59:34;24.30;99.90
15452;DHT22;7827;53.594;9.938;2022-07-29T15:02:04;24.40;99.90
15452;DHT22;7827;53.594;9.938;2022-07-29T15:04:32;24.50;99.90
15452;DHT22;7827;53.594;9.938;2022-07-29T15:07:02;24.70;99.90
15452;DHT22;7827;53.594;9.938;2022-07-29T15:09:30;24.80;99.90
15452;DHT22;7827;53.594;9.938;2022-07-29T15:12:06;24.80;99.90
15452;DHT22;7827;53.594;9.938;2022-07-29T15:14:37;24.90;99.90
15452;DHT22;7827;53.594;9.938;2022-07-29T15:17:06;24.90;99.90
15452;DHT22;7827;53.594;9.938;2022-07-29T15:19:35;25.00;99.90
15452;DHT22;7827;53.594;9.938;2022-07-29T15:22:03;24.90;99.90
15452;DHT22;7827;53.594;9.938;2022-07-29T15:24:32;24.90;99.90
15452;DHT22;7827;53.594;9.938;2022-07-29T15:27:01;24.80;99.90
15452;DHT22;7827;53.594;9.938;2022-07-29T15:29:29;24.70;99.90
15452;DHT22;7827;53.594;9.938;2022-07-29T15:31:57;24.60;99.90
15452;DHT22;7827;53.594;9.938;2022-07-29T15:34:28;24.40;99.90
15452;DHT22;7827;53.594;9.938;2022-07-29T15:36:56;24.20;99.90
15452;DHT22;7827;53.594;9.938;2022-07-29T15:39:24;24.00;99.90
15452;DHT22;7827;53.594;9.938;2022-07-29T15:41:53;23.90;99.90
15452;DHT22;7827;53.594;9.938;2022-07-29T15:44:22;24.10;99.90
15452;DHT22;7827;53.594;9.938;2022-07-29T15:46:50;24.20;99.90
15452;DHT22;7827;53.594;9.938;2022-07-29T15:49:35;24.40;99.90
15452;DHT22;7827;53.594;9.938;2022-07-29T15:52:16;24.50;99.90
15452;DHT22;7827;53.594;9.938;2022-07-29T15:54:51;24.60;99.90
15452;DHT22;7827;53.594;9.938;2022-07-29T15:57:20;24.50;99.90
15452;DHT22;7827;53.594;9.938;2022-07-29T15:59:49;24.70;99.90
15452;DHT22;7827;53.594;9.938;2022-07-29T16:02:18;24.80;99.90
15452;DHT22;7827;53.594;9.938;2022-07-29T16:04:47;25.00;99.90
15452;DHT22;7827;53.594;9.938;2022-07-29T16:07:16;25.00;99.90
15452;DHT22;7827;53.594;9.938;2022-07-29T16:09:44;25.10;99.90
15452;DHT22;7827;53.594;9.938;2022-07-29T16:12:19;25.10;99.90
15452;DHT22;7827;53.594;9.938;2022-07-29T16:14:48;24.90;99.90
15452;DHT22;7827;53.594;9.938;2022-07-29T16:17:18;24.80;99.90
15452;DHT22;7827;53.594;9.938;2022-07-29T16:19:48;24.50;99.90
15452;DHT22;7827;53.594;9.938;2022-07-29T16:22:16;24.40;99.90